CCGS Limnos — CG2350 — position and weather

sailwx.info

Track history (hours):
 
Tides and Currents Weather Stations Pressure Air Temp Water Temp Dewpoint Dewpoint Depression Visibility Wind Speed Wind Dir Waves Ship Positions

Oceanographic research ship CCGS Limnos (Canada)

Detailed information on ship capabilities available from University of Delaware's Ocean Information Center.

Last reported at 2018-Apr-26 22:00 UTC. Time now 2018-Apr-26 22:55 UTC.
Position N 43°18' W 079°48'.

Length 44.81 m; beam 9.75 m; draft 2.6 m.

Type: SAR. MMSI: 316001434.

Wind from 240 at 11 knots

Barometer 1010.6 mb
Air temperature 13.3 ° C
Dewpoint 3.9 ° C

Date/timePositionNaut miles runAvg speedWind from/ knotsBaromVisibWave heightAir tempDewpointWater temp
2018-Apr-26 22:00N 43°18' W 079°48'0 0.0 240 / 111010.6 13.3 3.9
2018-Apr-26 21:00N 43°18' W 079°48'0 0.0 220 / 131010.6 13.6 3.7
2018-Apr-26 20:00N 43°18' W 079°48'0 0.0 230 / 81010.9 13.0 3.3
2018-Apr-26 19:00N 43°18' W 079°48'0 0.0 250 / 101011.3 12.9 1.0
2018-Apr-26 18:00N 43°18' W 079°48'0 0.0 250 / 71011.4 11.8 1.2
2018-Apr-26 17:00N 43°18' W 079°48'0 0.0 260 / 91011.5 11.2 0.3
2018-Apr-26 16:00N 43°18' W 079°48'0 0.0 270 / 91011.7 10.1 1.0
2018-Apr-26 15:00N 43°18' W 079°48'0 0.0 260 / 91011.8 8.8 3.0
2018-Apr-26 14:00N 43°18' W 079°48'0 0.0 260 / 111011.8 7.4 3.8
2018-Apr-26 13:00N 43°18' W 079°48'0 0.0 220 / 81011.9 5.4 4.0
2018-Apr-26 12:00N 43°18' W 079°48'0 0.0 240 / 101011.7 5.0 3.3
2018-Apr-26 11:00N 43°18' W 079°48'0 0.0 240 / 71010.7 4.5 3.2
2018-Apr-26 10:00N 43°18' W 079°48'0 0.0 250 / 71010.2 4.8 3.4
2018-Apr-26 09:00N 43°18' W 079°48'0 0.0 270 / 71009.9 5.7 3.7
2018-Apr-26 08:00N 43°18' W 079°48'0 0.0 290 / 71009.5 5.7 4.6
2018-Apr-26 07:00N 43°18' W 079°48'0 0.0 260 / 61009.7 4.7 4.5
2018-Apr-26 06:00N 43°18' W 079°48'0 0.0 250 / 121009.7 4.8 4.5
2018-Apr-26 05:00N 43°18' W 079°48'0 0.0 260 / 111010.0 4.9 4.7
2018-Apr-26 04:00N 43°18' W 079°48'0 0.0 260 / 111010.2 5.1 4.9
2018-Apr-26 03:00N 43°18' W 079°48'0 0.0 250 / 101010.5 5.0 4.8
2018-Apr-26 02:00N 43°18' W 079°48'0 0.0 280 / 131010.3 5.5 5.1
2018-Apr-26 01:00N 43°18' W 079°48'0 0.0 270 / 91010.0 6.5 6.3
2018-Apr-26 00:00N 43°18' W 079°48'0 0.0 250 / 81009.6 7.4 7.2
2018-Apr-25 23:00N 43°18' W 079°48'0 0.0 290 / 91009.1 8.4 8.3
2018-Apr-25 22:00N 43°18' W 079°48'0 0.0 270 / 151008.5 9.8 9.9
2018-Apr-25 20:00N 43°18' W 079°48'0 0.0 070 / 11008.6 7.9 8.0
2018-Apr-25 19:00N 43°18' W 079°48'0 0.0 080 / 31009.2 7.9 8.0
2018-Apr-25 18:00N 43°18' W 079°48'0 0.0 090 / 21009.7 7.7 7.8
2018-Apr-25 17:00N 43°18' W 079°48'0 0.0 100 / 31010.3 7.1 7.2
2018-Apr-25 16:00N 43°18' W 079°48'0 0.0 060 / 31010.8 6.8 6.9
2018-Apr-25 15:00N 43°18' W 079°48'0 0.0 040 / 31011.4 6.9 7.0
2018-Apr-25 14:00N 43°18' W 079°48'0 0.0 040 / 31011.8 6.8 6.9
2018-Apr-25 13:00N 43°18' W 079°48'0 0.0 020 / 31012.3 6.5 6.6
2018-Apr-25 12:00N 43°18' W 079°48'0 0.0 010 / 31013.0 6.3 6.3
2018-Apr-25 11:00N 43°18' W 079°48'0 0.0 010 / 31013.3 5.9 6.0
2018-Apr-25 10:00N 43°18' W 079°48'0 0.0 010 / 31013.6 5.7 5.8
2018-Apr-25 09:00N 43°18' W 079°48'0 0.0 020 / 21014.0 6.0 6.0
2018-Apr-25 08:00N 43°18' W 079°48'0 0.0 020 / 21014.6 5.8 5.8
2018-Apr-25 07:00N 43°18' W 079°48'0 0.0 030 / 21015.3 5.9 5.9
2018-Apr-25 06:00N 43°18' W 079°48'0 0.0 350 / 11016.3 5.9 5.9
2018-Apr-25 05:00N 43°18' W 079°48'0 0.0 030 / 21017.0 5.5 5.5
2018-Apr-25 04:00N 43°18' W 079°48'0 0.0 030 / 31017.8 5.6 5.6
2018-Apr-25 03:00N 43°18' W 079°48'0 0.0 060 / 31018.3 6.9 6.9
2018-Apr-25 02:00N 43°18' W 079°48'0 0.0 080 / 31018.6 7.4 7.3
2018-Apr-25 01:00N 43°18' W 079°48'0 0.0 040 / 51018.6 7.6 7.5
2018-Apr-25 00:00N 43°18' W 079°48'0 0.0 030 / 71018.6 7.2 7.0
2018-Apr-24 23:00N 43°18' W 079°48'0 0.0 040 / 71018.9 7.3 7.1
2018-Apr-24 22:00N 43°18' W 079°48'0 0.0 150 / 91019.2 12.6 9.2
2018-Apr-24 21:00N 43°18' W 079°48'0 0.0 150 / 151019.1 13.8 8.1
2018-Apr-24 20:00N 43°18' W 079°48'0 0.0 070 / 31019.4 11.5 5.0
2018-Apr-24 19:00N 43°18' W 079°48'0 0.0 050 / 51020.1 12.6 5.2
2018-Apr-24 18:00N 43°18' W 079°48'0 0.0 140 / 31020.8 14.4 5.5
2018-Apr-24 17:00N 43°18' W 079°48'0 0.0 1021.1 14.6 5.4
2018-Apr-24 16:00N 43°18' W 079°48'0 0.0 210 / 71021.7 13.0 5.1
2018-Apr-24 15:00N 43°18' W 079°48'0 0.0 190 / 81022.3 13.1 5.8
2018-Apr-24 14:00N 43°18' W 079°48'0 0.0 190 / 91022.9 13.1 7.1
2018-Apr-24 13:00N 43°18' W 079°48'0 0.0 180 / 111022.9 12.8 6.8
2018-Apr-24 12:00N 43°18' W 079°48'0 0.0 360 / 11023.0 8.0 1.4
2018-Apr-24 11:00N 43°18' W 079°48'0 0.0 020 / 11022.7 7.1 0.7
2018-Apr-24 10:00N 43°18' W 079°48'0 0.0 1022.4 6.8 0.3
2018-Apr-24 09:00N 43°18' W 079°48'0 0.0 120 / 21022.5 7.6 0.8
2018-Apr-24 08:00N 43°18' W 079°48'0 0.0 040 / 71022.2 7.4-0.4
2018-Apr-24 07:00N 43°18' W 079°48'0 0.0 030 / 21022.2 7.5 0.3
2018-Apr-24 05:00N 43°18' W 079°48'0 0.0 350 / 11022.8 8.9-0.5
2018-Apr-24 04:00N 43°18' W 079°48'0 0.0 020 / 11023.1 9.0-1.3
2018-Apr-24 03:00N 43°18' W 079°48'0 0.0 040 / 21023.4 10.2-1.9
2018-Apr-24 02:00N 43°18' W 079°48'0 0.0 020 / 41023.7 10.0-0.7
2018-Apr-24 01:00N 43°18' W 079°48'0 0.0 030 / 31023.8 10.1-1.0
2018-Apr-24 00:00N 43°18' W 079°48'0 0.0 040 / 31024.0 9.1-0.5
2018-Apr-23 23:00N 43°18' W 079°48'0 0.0 030 / 21024.2 8.6 0.4
2018-Apr-23 22:00N 43°18' W 079°48'0 0.0 020 / 51024.8 8.1 1.3
2018-Apr-23 21:00N 43°18' W 079°48'0 0.0 020 / 51025.5 7.4 1.4
2018-Apr-23 19:00N 43°18' W 079°48'0 0.0 040 / 41027.0 6.7 2.5
2018-Apr-23 18:00N 43°18' W 079°48'0 0.0 050 / 51027.7 6.8 2.7
2018-Apr-23 17:00N 43°18' W 079°48'0 0.0 040 / 71028.2 6.1 2.7
2018-Apr-23 16:00N 43°18' W 079°48'0 0.0 040 / 61029.1 5.8 2.3
2018-Apr-23 15:00N 43°18' W 079°48'0 0.0 040 / 71029.5 5.9 1.6
2018-Apr-23 14:00N 43°18' W 079°48'0 0.0 040 / 61029.9 6.0 0.5
2018-Apr-23 13:00N 43°18' W 079°48'0 0.0 040 / 51030.2 6.2-0.0
2018-Apr-23 12:00N 43°18' W 079°48'0 0.0 030 / 31030.0 6.5-1.8
2018-Apr-23 11:00N 43°18' W 079°48'0 0.0 030 / 21029.4 5.4-2.4
2018-Apr-23 10:00N 43°18' W 079°48'0 0.0 020 / 31029.2 6.2-2.8
2018-Apr-23 09:00N 43°18' W 079°48'0 0.0 010 / 41029.2 6.0-2.5
2018-Apr-23 08:00N 43°18' W 079°48'0 0.0 350 / 21029.1 5.7-1.0
2018-Apr-23 07:00N 43°18' W 079°48'0 0.0 320 / 11028.9 5.7-0.6
2018-Apr-23 06:00N 43°18' W 079°48'0 0.0 100 / 21029.2 7.6-2.7
2018-Apr-23 05:00N 43°18' W 079°48'0 0.0 110 / 31029.0 7.8-2.6
2018-Apr-23 03:00N 43°18' W 079°48'0 0.0 020 / 41028.9 10.6-5.8
2018-Apr-23 02:00N 43°18' W 079°48'0 0.0 030 / 51029.2 10.9-7.1
2018-Apr-23 01:00N 43°18' W 079°48'0 0.0 050 / 51028.8 11.1-6.1
2018-Apr-23 00:00N 43°18' W 079°48'0 0.0 060 / 51028.4 11.8-6.5
2018-Apr-22 23:00N 43°18' W 079°48'0 0.0 040 / 61028.5 11.4-5.7
2018-Apr-22 22:00N 43°18' W 079°48'0 0.0 090 / 41028.7 14.5-8.3
2018-Apr-22 21:00N 43°18' W 079°48'0 0.0 060 / 31028.9 12.5-6.8
2018-Apr-22 20:00N 43°18' W 079°48'0 0.0 090 / 51029.5 11.7-7.0
2018-Apr-22 19:00N 43°18' W 079°48'0 0.0 080 / 41030.2 11.4-5.1
2018-Apr-22 18:00N 43°18' W 079°48'0 0.0 090 / 61030.7 11.3-4.3
2018-Apr-22 17:00N 43°18' W 079°48'0 0.0 090 / 41031.2 11.1-4.1
2018-Apr-22 16:00N 43°18' W 079°48'0 0.0 090 / 41031.7 11.0-4.5
2018-Apr-22 15:00N 43°18' W 079°48'0 0.0 090 / 41032.1 10.5-4.9
2018-Apr-22 14:00N 43°18' W 079°48'0 0.0 220 / 11032.1 7.9-3.6
2018-Apr-22 13:00N 43°18' W 079°48'0 0.0 240 / 31032.0 5.0 0.2
2018-Apr-22 12:00N 43°18' W 079°48'0 0.0 230 / 31031.5 3.2 0.8
2018-Apr-22 11:00N 43°18' W 079°48'0 0.0 270 / 21030.8 2.4 0.7
2018-Apr-22 10:00N 43°18' W 079°48'0 0.0 280 / 21030.3 2.5 0.6
2018-Apr-22 09:00N 43°18' W 079°48'0 0.0 270 / 11030.4 2.8 0.4
2018-Apr-22 08:00N 43°18' W 079°48'0 0.0 300 / 11030.0 3.5 0.6
2018-Apr-22 07:00N 43°18' W 079°48'0 0.0 280 / 11030.1 4.4 1.3
2018-Apr-22 06:00N 43°18' W 079°48'0 0.0 1030.3 5.8-0.8
2018-Apr-22 05:00N 43°18' W 079°48'0 0.0 210 / 11030.2 6.3-0.6
2018-Apr-22 04:00N 43°18' W 079°48'0 0.0 230 / 41030.0 7.4-0.8
2018-Apr-22 03:00N 43°18' W 079°48'0 0.0 240 / 41030.1 7.8-0.1
2018-Apr-22 02:00N 43°18' W 079°48'0 0.0 220 / 71030.1 9.3-2.6
2018-Apr-22 01:00N 43°18' W 079°48'0 0.0 280 / 61029.7 10.9-3.8
2018-Apr-22 00:00N 43°18' W 079°48'0 0.0 280 / 71029.2 12.5-4.9
2018-Apr-21 23:00N 43°18' W 079°48'0 0.0 320 / 41029.0 13.9-5.8
2018-Apr-21 22:00N 43°18' W 079°48'0 0.0 340 / 21029.1 14.5-6.4
2018-Apr-21 21:00N 43°18' W 079°48'0 0.0 290 / 31029.1 13.7-6.5
2018-Apr-21 20:00N 43°18' W 079°48'0 0.0 250 / 41029.7 12.9-6.5
2018-Apr-21 19:00N 43°18' W 079°48'0 0.0 230 / 61030.4 11.9-5.8
2018-Apr-21 18:00N 43°18' W 079°48'0 0.0 200 / 31030.9 11.6-5.3
2018-Apr-21 17:00N 43°18' W 079°48'0 0.0 210 / 81031.3 9.8-4.1
2018-Apr-21 16:00N 43°18' W 079°48'0 0.0 200 / 71032.0 9.2-5.7
2018-Apr-21 15:00N 43°18' W 079°48'0 0.0 210 / 61032.5 7.8-4.2
2018-Apr-21 14:00N 43°18' W 079°48'0 0.0 240 / 61033.0 6.0-2.9
2018-Apr-21 13:00N 43°18' W 079°48'0 0.0 230 / 51033.1 3.5-0.9
2018-Apr-21 12:00N 43°18' W 079°48'0 0.0 230 / 91032.9 2.1-1.7
2018-Apr-21 11:00N 43°18' W 079°48'0 0.0 230 / 81032.0 1.9-1.9
2018-Apr-21 10:00N 43°18' W 079°48'0 0.0 230 / 71031.6 1.9-2.0
2018-Apr-21 09:00N 43°18' W 079°48'0 0.0 230 / 71031.8 2.1-2.0
2018-Apr-21 08:00N 43°18' W 079°48'0 0.0 240 / 61031.9 2.3-2.3
2018-Apr-21 07:00N 43°18' W 079°48'0 0.0 240 / 81031.9 2.7-2.1
2018-Apr-21 06:00N 43°18' W 079°48'0 0.0 250 / 71032.0 2.9-2.1
2018-Apr-21 05:00N 43°18' W 079°48'0 0.0 240 / 51032.0 3.4-1.9
2018-Apr-21 04:00N 43°18' W 079°48'0 0.0 300 / 71031.4 4.1-1.9
2018-Apr-21 03:00N 43°18' W 079°48'0 0.0 230 / 41030.9 4.3-1.0
2018-Apr-21 02:00N 43°18' W 079°48'0 0.0 290 / 61031.3 5.3-1.9
2018-Apr-21 01:00N 43°18' W 079°48'0 0.0 280 / 71031.2 6.2-1.9
2018-Apr-21 00:00N 43°18' W 079°48'0 0.0 290 / 71030.5 7.4-2.4
2018-Apr-20 23:00N 43°18' W 079°48'0 0.0 310 / 81030.1 8.4-3.1
2018-Apr-20 22:00N 43°18' W 079°48'0 0.0 300 / 121030.0 8.1-3.7
2018-Apr-20 21:00N 43°18' W 079°48'0 0.0 280 / 111030.1 7.8-3.0
2018-Apr-20 20:00N 43°18' W 079°48'0 0.0 290 / 91030.1 7.5-3.4
2018-Apr-20 17:00N 43°18' W 079°48'0 0.0 310 / 51030.1 5.6-3.7
2018-Apr-20 16:00N 43°18' W 079°48'0 0.0 310 / 51030.3 4.5-4.4
2018-Apr-20 15:00N 43°18' W 079°48'0 0.0 310 / 81030.2 3.5-4.8
2018-Apr-20 14:00N 43°18' W 079°48'0 0.0 330 / 91029.6 2.7-5.0
2018-Apr-20 13:00N 43°18' W 079°48'0 0.0 330 / 101028.8 1.8-4.9
2018-Apr-20 12:00N 43°18' W 079°48'0 0.0 260 / 81028.1 0.6-3.2
2018-Apr-20 11:00N 43°18' W 079°48'0 0.0 250 / 71027.6 0.2-3.3
2018-Apr-20 10:00N 43°18' W 079°48'0 0.0 270 / 61027.0 0.2-3.0
2018-Apr-20 09:00N 43°18' W 079°48'0 0.0 260 / 61026.4 0.7-3.2
2018-Apr-20 08:00N 43°18' W 079°48'0 0.0 260 / 51025.7 1.2-3.4
2018-Apr-20 07:00N 43°18' W 079°48'0 0.0 260 / 41025.2 1.4-2.3
2018-Apr-20 06:00N 43°18' W 079°48'0 0.0 290 / 41024.8 2.0-2.7
2018-Apr-20 05:00N 43°18' W 079°48'0 0.0 290 / 51024.2 1.9-2.7
2018-Apr-20 04:00N 43°18' W 079°48'0 0.0 270 / 91023.4 2.1-2.4
2018-Apr-20 03:00N 43°18' W 079°48'0 0.0 260 / 101023.3 2.3-2.7
2018-Apr-20 02:00N 43°18' W 079°48'0 0.0 250 / 111023.1 2.8-3.5
2018-Apr-20 01:00N 43°18' W 079°48'0 0.0 260 / 91022.3 3.2-3.6
2018-Apr-20 00:00N 43°18' W 079°48'0 0.0 270 / 131021.2 3.8-3.6
2018-Apr-19 23:00N 43°18' W 079°48'0 0.0 290 / 171020.3 3.7-3.8
2018-Apr-19 22:00N 43°18' W 079°48'0 0.0 290 / 181019.3 3.6-3.4
2018-Apr-19 21:00N 43°18' W 079°48'0 0.0 280 / 181018.4 3.9-3.6
2018-Apr-19 20:00N 43°18' W 079°48'0 0.0 290 / 181018.0 4.0-4.6
2018-Apr-19 19:00N 43°18' W 079°48'0 0.0 290 / 171017.4 3.5-3.9
2018-Apr-19 18:00N 43°18' W 079°48'0 0.0 290 / 171016.6 3.6-3.4
2018-Apr-19 17:00N 43°18' W 079°48'0 0.0 300 / 101016.1 3.4-3.2
2018-Apr-19 16:00N 43°18' W 079°48'0 0.0 300 / 131015.3 2.7-2.9
2018-Apr-19 15:00N 43°18' W 079°48'0 0.0 320 / 141014.6 2.5-3.3
2018-Apr-19 14:00N 43°18' W 079°48'0 0.0 310 / 121013.8 2.1-3.9
2018-Apr-19 13:00N 43°18' W 079°48'0 0.0 330 / 131012.9 1.6-3.6
2018-Apr-19 12:00N 43°18' W 079°48'0 0.0 340 / 71011.8 1.9-3.6
2018-Apr-19 11:00N 43°18' W 079°48'0 0.0 350 / 61010.9 1.9-4.1
2018-Apr-19 10:00N 43°18' W 079°48'0 0.0 330 / 151009.7 2.0-4.1
2018-Apr-19 09:00N 43°18' W 079°48'0 0.0 330 / 121009.4 2.1-2.7
2018-Apr-19 08:00N 43°18' W 079°48'0 0.0 330 / 81009.8 2.5-1.8
2018-Apr-19 07:00N 43°18' W 079°48'0 0.0 290 / 61009.4 2.3-1.1
2018-Apr-19 06:00N 43°18' W 079°48'0 0.0 240 / 81009.5 2.6-0.9
2018-Apr-19 05:00N 43°18' W 079°48'0 0.0 300 / 31008.5 2.6-0.5
2018-Apr-19 04:00N 43°18' W 079°48'0 0.0 330 / 71009.6 2.8-0.7
2018-Apr-19 03:00N 43°18' W 079°48'0 0.0 250 / 91011.1 2.8-0.7
2018-Apr-19 02:00N 43°18' W 079°48'0 0.0 240 / 91012.1 3.0-0.9
2018-Apr-19 01:00N 43°18' W 079°48'0 0.0 240 / 81010.6 3.2-1.1
2018-Apr-19 00:00N 43°18' W 079°48'0 0.0 320 / 61009.4 3.5-1.4
2018-Apr-18 23:00N 43°18' W 079°48'0 0.0 290 / 111010.4 3.7-1.6
2018-Apr-18 22:00N 43°18' W 079°48'0 0.0 280 / 101010.3 4.0-0.7
2018-Apr-18 21:00N 43°18' W 079°48'0 0.0 240 / 111010.7 3.9 0.1
2018-Apr-18 20:00N 43°18' W 079°48'0 0.0 250 / 91010.6 4.1-0.5
2018-Apr-18 19:00N 43°18' W 079°48'0 0.0 250 / 91010.5 3.9-0.0
2018-Apr-18 18:00N 43°18' W 079°48'0 0.0 250 / 131010.7 3.6-0.5
2018-Apr-18 17:00N 43°18' W 079°48'0 0.0 230 / 151010.9 3.1-0.0
2018-Apr-18 16:00N 43°18' W 079°48'0 0.0 230 / 151010.8 3.1-0.3
2018-Apr-18 14:00N 43°18' W 079°48'0 0.0 220 / 121010.4 2.5 0.3
2018-Apr-18 13:00N 43°18' W 079°48'0 0.0 220 / 111010.3 2.1 0.4
2018-Apr-18 12:00N 43°18' W 079°48'0 0.0 240 / 111010.9 1.9 0.4
2018-Apr-18 11:00N 43°18' W 079°48'0 0.0 230 / 131010.4 1.8 0.1
2018-Apr-18 10:00N 43°18' W 079°48'0 0.0 240 / 111009.9 1.9 0.1
2018-Apr-18 09:00N 43°18' W 079°48'0 0.0 250 / 151009.5 1.9-0.2
2018-Apr-18 08:00N 43°18' W 079°48'0 0.0 240 / 131009.5 1.9-0.2
2018-Apr-18 07:00N 43°18' W 079°48'0 0.0 240 / 131008.9 2.0-0.2
2018-Apr-18 06:00N 43°18' W 079°48'0 0.0 250 / 151008.8 2.2-0.4
2018-Apr-18 05:00N 43°18' W 079°48'0 0.0 260 / 131008.9 2.4-0.1
2018-Apr-18 04:00N 43°18' W 079°48'0 0.0 240 / 91008.5 2.0 1.3
2018-Apr-18 03:00N 43°18' W 079°48'0 0.0 230 / 101008.3 2.3 1.3
2018-Apr-18 02:00N 43°18' W 079°48'0 0.0 230 / 141007.8 1.7 1.0
2018-Apr-18 01:00N 43°18' W 079°48'0 0.0 240 / 161007.3 1.7 0.1
2018-Apr-18 00:00N 43°18' W 079°48'0 0.0 240 / 171006.7 2.1-1.5
2018-Apr-17 23:00N 43°18' W 079°48'0 0.0 240 / 161006.1 2.0-2.0
2018-Apr-17 22:00N 43°18' W 079°48'0 0.0 240 / 161005.8 1.8-2.8
2018-Apr-17 21:00N 43°18' W 079°48'0 0.0 240 / 161005.3 1.6-2.7
2018-Apr-17 20:00N 43°18' W 079°48'0 0.0 240 / 171005.1 0.9-2.7
2018-Apr-17 19:00N 43°18' W 079°48'0 0.0 220 / 151004.8 0.5-2.7
2018-Apr-17 18:00N 43°18' W 079°48'0 0.0 240 / 141004.5 -0.0-3.2
2018-Apr-17 17:00N 43°18' W 079°48'0 0.0 240 / 171004.2 -0.4-2.3
2018-Apr-17 16:00N 43°18' W 079°48'0 0.0 250 / 161004.3 0.2-3.3
2018-Apr-17 15:00N 43°18' W 079°48'0 0.0 260 / 161004.1 0.4-1.4
2018-Apr-17 14:00N 43°18' W 079°48'0 0.0 230 / 121004.3 0.4-1.8
2018-Apr-17 13:00N 43°18' W 079°48'0 0.0 240 / 121004.8 0.1-2.8
2018-Apr-17 12:00N 43°18' W 079°48'0 0.0 240 / 161004.9 0.3-3.6
2018-Apr-17 11:00N 43°18' W 079°48'0 0.0 240 / 141004.8 0.4-3.8
2018-Apr-17 10:00N 43°18' W 079°48'0 0.0 240 / 161004.5 0.5-3.5
2018-Apr-17 09:00N 43°18' W 079°48'0 0.0 240 / 181004.2 0.6-3.5
2018-Apr-17 08:00N 43°18' W 079°48'0 0.0 240 / 211003.9 1.1-2.8
2018-Apr-17 07:00N 43°18' W 079°48'0 0.0 250 / 181003.5 1.8-1.2
2018-Apr-17 06:00N 43°18' W 079°48'0 0.0 250 / 151003.5 2.2 0.9
2018-Apr-17 05:00N 43°18' W 079°48'0 0.0 250 / 131003.1 2.7 1.7
2018-Apr-17 04:00N 43°18' W 079°48'0 0.0 250 / 141002.8 3.0 2.8
2018-Apr-17 03:00N 43°18' W 079°48'0 0.0 230 / 121002.5 2.9 2.7
2018-Apr-17 02:00N 43°18' W 079°48'0 0.0 220 / 131002.5 3.0 2.8
2018-Apr-17 01:00N 43°18' W 079°48'0 0.0 230 / 141002.1 3.1 3.0
2018-Apr-17 00:00N 43°18' W 079°48'0 0.0 230 / 151001.9 3.4 3.2
2018-Apr-16 23:00N 43°18' W 079°48'0 0.0 240 / 171001.7 4.0 3.7
2018-Apr-16 22:00N 43°18' W 079°48'   230 / 121001.5 3.9 3.7
Track history (hours):
 
Tides and Currents Weather Stations Pressure Air Temp Water Temp Dewpoint Dewpoint Depression Visibility Wind Speed Wind Dir Waves Ship Positions

Oceanographic research ship CCGS Limnos (Canada)

Detailed information on ship capabilities available from University of Delaware's Ocean Information Center.

Last reported at 2018-Apr-26 22:00 UTC. Time now 2018-Apr-26 22:55 UTC.
Position N 43°18' W 079°48'.

Length 44.81 m; beam 9.75 m; draft 2.6 m.

Type: SAR. MMSI: 316001434.

Wind from 240 at 11 knots

Barometer 1010.6 mb
Air temperature 13.3 ° C
Dewpoint 3.9 ° C

Date/timePositionNaut miles runAvg speedWind from/ knotsBaromVisibWave heightAir tempDewpointWater temp
2018-Apr-26 22:00N 43°18' W 079°48'0 0.0 240 / 111010.6 13.3 3.9
2018-Apr-26 21:00N 43°18' W 079°48'0 0.0 220 / 131010.6 13.6 3.7
2018-Apr-26 20:00N 43°18' W 079°48'0 0.0 230 / 81010.9 13.0 3.3
2018-Apr-26 19:00N 43°18' W 079°48'0 0.0 250 / 101011.3 12.9 1.0
2018-Apr-26 18:00N 43°18' W 079°48'0 0.0 250 / 71011.4 11.8 1.2
2018-Apr-26 17:00N 43°18' W 079°48'0 0.0 260 / 91011.5 11.2 0.3
2018-Apr-26 16:00N 43°18' W 079°48'0 0.0 270 / 91011.7 10.1 1.0
2018-Apr-26 15:00N 43°18' W 079°48'0 0.0 260 / 91011.8 8.8 3.0
2018-Apr-26 14:00N 43°18' W 079°48'0 0.0 260 / 111011.8 7.4 3.8
2018-Apr-26 13:00N 43°18' W 079°48'0 0.0 220 / 81011.9 5.4 4.0
2018-Apr-26 12:00N 43°18' W 079°48'0 0.0 240 / 101011.7 5.0 3.3
2018-Apr-26 11:00N 43°18' W 079°48'0 0.0 240 / 71010.7 4.5 3.2
2018-Apr-26 10:00N 43°18' W 079°48'0 0.0 250 / 71010.2 4.8 3.4
2018-Apr-26 09:00N 43°18' W 079°48'0 0.0 270 / 71009.9 5.7 3.7
2018-Apr-26 08:00N 43°18' W 079°48'0 0.0 290 / 71009.5 5.7 4.6
2018-Apr-26 07:00N 43°18' W 079°48'0 0.0 260 / 61009.7 4.7 4.5
2018-Apr-26 06:00N 43°18' W 079°48'0 0.0 250 / 121009.7 4.8 4.5
2018-Apr-26 05:00N 43°18' W 079°48'0 0.0 260 / 111010.0 4.9 4.7
2018-Apr-26 04:00N 43°18' W 079°48'0 0.0 260 / 111010.2 5.1 4.9
2018-Apr-26 03:00N 43°18' W 079°48'0 0.0 250 / 101010.5 5.0 4.8
2018-Apr-26 02:00N 43°18' W 079°48'0 0.0 280 / 131010.3 5.5 5.1
2018-Apr-26 01:00N 43°18' W 079°48'0 0.0 270 / 91010.0 6.5 6.3
2018-Apr-26 00:00N 43°18' W 079°48'0 0.0 250 / 81009.6 7.4 7.2
2018-Apr-25 23:00N 43°18' W 079°48'0 0.0 290 / 91009.1 8.4 8.3
2018-Apr-25 22:00N 43°18' W 079°48'0 0.0 270 / 151008.5 9.8 9.9
2018-Apr-25 20:00N 43°18' W 079°48'0 0.0 070 / 11008.6 7.9 8.0
2018-Apr-25 19:00N 43°18' W 079°48'0 0.0 080 / 31009.2 7.9 8.0
2018-Apr-25 18:00N 43°18' W 079°48'0 0.0 090 / 21009.7 7.7 7.8
2018-Apr-25 17:00N 43°18' W 079°48'0 0.0 100 / 31010.3 7.1 7.2
2018-Apr-25 16:00N 43°18' W 079°48'0 0.0 060 / 31010.8 6.8 6.9
2018-Apr-25 15:00N 43°18' W 079°48'0 0.0 040 / 31011.4 6.9 7.0
2018-Apr-25 14:00N 43°18' W 079°48'0 0.0 040 / 31011.8 6.8 6.9
2018-Apr-25 13:00N 43°18' W 079°48'0 0.0 020 / 31012.3 6.5 6.6
2018-Apr-25 12:00N 43°18' W 079°48'0 0.0 010 / 31013.0 6.3 6.3
2018-Apr-25 11:00N 43°18' W 079°48'0 0.0 010 / 31013.3 5.9 6.0
2018-Apr-25 10:00N 43°18' W 079°48'0 0.0 010 / 31013.6 5.7 5.8
2018-Apr-25 09:00N 43°18' W 079°48'0 0.0 020 / 21014.0 6.0 6.0
2018-Apr-25 08:00N 43°18' W 079°48'0 0.0 020 / 21014.6 5.8 5.8
2018-Apr-25 07:00N 43°18' W 079°48'0 0.0 030 / 21015.3 5.9 5.9
2018-Apr-25 06:00N 43°18' W 079°48'0 0.0 350 / 11016.3 5.9 5.9
2018-Apr-25 05:00N 43°18' W 079°48'0 0.0 030 / 21017.0 5.5 5.5
2018-Apr-25 04:00N 43°18' W 079°48'0 0.0 030 / 31017.8 5.6 5.6
2018-Apr-25 03:00N 43°18' W 079°48'0 0.0 060 / 31018.3 6.9 6.9
2018-Apr-25 02:00N 43°18' W 079°48'0 0.0 080 / 31018.6 7.4 7.3
2018-Apr-25 01:00N 43°18' W 079°48'0 0.0 040 / 51018.6 7.6 7.5
2018-Apr-25 00:00N 43°18' W 079°48'0 0.0 030 / 71018.6 7.2 7.0
2018-Apr-24 23:00N 43°18' W 079°48'0 0.0 040 / 71018.9 7.3 7.1
2018-Apr-24 22:00N 43°18' W 079°48'0 0.0 150 / 91019.2 12.6 9.2
2018-Apr-24 21:00N 43°18' W 079°48'0 0.0 150 / 151019.1 13.8 8.1
2018-Apr-24 20:00N 43°18' W 079°48'0 0.0 070 / 31019.4 11.5 5.0
2018-Apr-24 19:00N 43°18' W 079°48'0 0.0 050 / 51020.1 12.6 5.2
2018-Apr-24 18:00N 43°18' W 079°48'0 0.0 140 / 31020.8 14.4 5.5
2018-Apr-24 17:00N 43°18' W 079°48'0 0.0 1021.1 14.6 5.4
2018-Apr-24 16:00N 43°18' W 079°48'0 0.0 210 / 71021.7 13.0 5.1
2018-Apr-24 15:00N 43°18' W 079°48'0 0.0 190 / 81022.3 13.1 5.8
2018-Apr-24 14:00N 43°18' W 079°48'0 0.0 190 / 91022.9 13.1 7.1
2018-Apr-24 13:00N 43°18' W 079°48'0 0.0 180 / 111022.9 12.8 6.8
2018-Apr-24 12:00N 43°18' W 079°48'0 0.0 360 / 11023.0 8.0 1.4
2018-Apr-24 11:00N 43°18' W 079°48'0 0.0 020 / 11022.7 7.1 0.7
2018-Apr-24 10:00N 43°18' W 079°48'0 0.0 1022.4 6.8 0.3
2018-Apr-24 09:00N 43°18' W 079°48'0 0.0 120 / 21022.5 7.6 0.8
2018-Apr-24 08:00N 43°18' W 079°48'0 0.0 040 / 71022.2 7.4-0.4
2018-Apr-24 07:00N 43°18' W 079°48'0 0.0 030 / 21022.2 7.5 0.3
2018-Apr-24 05:00N 43°18' W 079°48'0 0.0 350 / 11022.8 8.9-0.5
2018-Apr-24 04:00N 43°18' W 079°48'0 0.0 020 / 11023.1 9.0-1.3
2018-Apr-24 03:00N 43°18' W 079°48'0 0.0 040 / 21023.4 10.2-1.9
2018-Apr-24 02:00N 43°18' W 079°48'0 0.0 020 / 41023.7 10.0-0.7
2018-Apr-24 01:00N 43°18' W 079°48'0 0.0 030 / 31023.8 10.1-1.0
2018-Apr-24 00:00N 43°18' W 079°48'0 0.0 040 / 31024.0 9.1-0.5
2018-Apr-23 23:00N 43°18' W 079°48'0 0.0 030 / 21024.2 8.6 0.4
2018-Apr-23 22:00N 43°18' W 079°48'0 0.0 020 / 51024.8 8.1 1.3
2018-Apr-23 21:00N 43°18' W 079°48'0 0.0 020 / 51025.5 7.4 1.4
2018-Apr-23 19:00N 43°18' W 079°48'0 0.0 040 / 41027.0 6.7 2.5
2018-Apr-23 18:00N 43°18' W 079°48'0 0.0 050 / 51027.7 6.8 2.7
2018-Apr-23 17:00N 43°18' W 079°48'0 0.0 040 / 71028.2 6.1 2.7
2018-Apr-23 16:00N 43°18' W 079°48'0 0.0 040 / 61029.1 5.8 2.3
2018-Apr-23 15:00N 43°18' W 079°48'0 0.0 040 / 71029.5 5.9 1.6
2018-Apr-23 14:00N 43°18' W 079°48'0 0.0 040 / 61029.9 6.0 0.5
2018-Apr-23 13:00N 43°18' W 079°48'0 0.0 040 / 51030.2 6.2-0.0
2018-Apr-23 12:00N 43°18' W 079°48'0 0.0 030 / 31030.0 6.5-1.8
2018-Apr-23 11:00N 43°18' W 079°48'0 0.0 030 / 21029.4 5.4-2.4
2018-Apr-23 10:00N 43°18' W 079°48'0 0.0 020 / 31029.2 6.2-2.8
2018-Apr-23 09:00N 43°18' W 079°48'0 0.0 010 / 41029.2 6.0-2.5
2018-Apr-23 08:00N 43°18' W 079°48'0 0.0 350 / 21029.1 5.7-1.0
2018-Apr-23 07:00N 43°18' W 079°48'0 0.0 320 / 11028.9 5.7-0.6
2018-Apr-23 06:00N 43°18' W 079°48'0 0.0 100 / 21029.2 7.6-2.7
2018-Apr-23 05:00N 43°18' W 079°48'0 0.0 110 / 31029.0 7.8-2.6
2018-Apr-23 03:00N 43°18' W 079°48'0 0.0 020 / 41028.9 10.6-5.8
2018-Apr-23 02:00N 43°18' W 079°48'0 0.0 030 / 51029.2 10.9-7.1
2018-Apr-23 01:00N 43°18' W 079°48'0 0.0 050 / 51028.8 11.1-6.1
2018-Apr-23 00:00N 43°18' W 079°48'0 0.0 060 / 51028.4 11.8-6.5
2018-Apr-22 23:00N 43°18' W 079°48'0 0.0 040 / 61028.5 11.4-5.7
2018-Apr-22 22:00N 43°18' W 079°48'0 0.0 090 / 41028.7 14.5-8.3
2018-Apr-22 21:00N 43°18' W 079°48'0 0.0 060 / 31028.9 12.5-6.8
2018-Apr-22 20:00N 43°18' W 079°48'0 0.0 090 / 51029.5 11.7-7.0
2018-Apr-22 19:00N 43°18' W 079°48'0 0.0 080 / 41030.2 11.4-5.1
2018-Apr-22 18:00N 43°18' W 079°48'0 0.0 090 / 61030.7 11.3-4.3
2018-Apr-22 17:00N 43°18' W 079°48'0 0.0 090 / 41031.2 11.1-4.1
2018-Apr-22 16:00N 43°18' W 079°48'0 0.0 090 / 41031.7 11.0-4.5
2018-Apr-22 15:00N 43°18' W 079°48'0 0.0 090 / 41032.1 10.5-4.9
2018-Apr-22 14:00N 43°18' W 079°48'0 0.0 220 / 11032.1 7.9-3.6
2018-Apr-22 13:00N 43°18' W 079°48'0 0.0 240 / 31032.0 5.0 0.2
2018-Apr-22 12:00N 43°18' W 079°48'0 0.0 230 / 31031.5 3.2 0.8
2018-Apr-22 11:00N 43°18' W 079°48'0 0.0 270 / 21030.8 2.4 0.7
2018-Apr-22 10:00N 43°18' W 079°48'0 0.0 280 / 21030.3 2.5 0.6
2018-Apr-22 09:00N 43°18' W 079°48'0 0.0 270 / 11030.4 2.8 0.4
2018-Apr-22 08:00N 43°18' W 079°48'0 0.0 300 / 11030.0 3.5 0.6
2018-Apr-22 07:00N 43°18' W 079°48'0 0.0 280 / 11030.1 4.4 1.3
2018-Apr-22 06:00N 43°18' W 079°48'0 0.0 1030.3 5.8-0.8
2018-Apr-22 05:00N 43°18' W 079°48'0 0.0 210 / 11030.2 6.3-0.6
2018-Apr-22 04:00N 43°18' W 079°48'0 0.0 230 / 41030.0 7.4-0.8
2018-Apr-22 03:00N 43°18' W 079°48'0 0.0 240 / 41030.1 7.8-0.1
2018-Apr-22 02:00N 43°18' W 079°48'0 0.0 220 / 71030.1 9.3-2.6
2018-Apr-22 01:00N 43°18' W 079°48'0 0.0 280 / 61029.7 10.9-3.8
2018-Apr-22 00:00N 43°18' W 079°48'0 0.0 280 / 71029.2 12.5-4.9
2018-Apr-21 23:00N 43°18' W 079°48'0 0.0 320 / 41029.0 13.9-5.8
2018-Apr-21 22:00N 43°18' W 079°48'0 0.0 340 / 21029.1 14.5-6.4
2018-Apr-21 21:00N 43°18' W 079°48'0 0.0 290 / 31029.1 13.7-6.5
2018-Apr-21 20:00N 43°18' W 079°48'0 0.0 250 / 41029.7 12.9-6.5
2018-Apr-21 19:00N 43°18' W 079°48'0 0.0 230 / 61030.4 11.9-5.8
2018-Apr-21 18:00N 43°18' W 079°48'0 0.0 200 / 31030.9 11.6-5.3
2018-Apr-21 17:00N 43°18' W 079°48'0 0.0 210 / 81031.3 9.8-4.1
2018-Apr-21 16:00N 43°18' W 079°48'0 0.0 200 / 71032.0 9.2-5.7
2018-Apr-21 15:00N 43°18' W 079°48'0 0.0 210 / 61032.5 7.8-4.2
2018-Apr-21 14:00N 43°18' W 079°48'0 0.0 240 / 61033.0 6.0-2.9
2018-Apr-21 13:00N 43°18' W 079°48'0 0.0 230 / 51033.1 3.5-0.9
2018-Apr-21 12:00N 43°18' W 079°48'0 0.0 230 / 91032.9 2.1-1.7
2018-Apr-21 11:00N 43°18' W 079°48'0 0.0 230 / 81032.0 1.9-1.9
2018-Apr-21 10:00N 43°18' W 079°48'0 0.0 230 / 71031.6 1.9-2.0
2018-Apr-21 09:00N 43°18' W 079°48'0 0.0 230 / 71031.8 2.1-2.0
2018-Apr-21 08:00N 43°18' W 079°48'0 0.0 240 / 61031.9 2.3-2.3
2018-Apr-21 07:00N 43°18' W 079°48'0 0.0 240 / 81031.9 2.7-2.1
2018-Apr-21 06:00N 43°18' W 079°48'0 0.0 250 / 71032.0 2.9-2.1
2018-Apr-21 05:00N 43°18' W 079°48'0 0.0 240 / 51032.0 3.4-1.9
2018-Apr-21 04:00N 43°18' W 079°48'0 0.0 300 / 71031.4 4.1-1.9
2018-Apr-21 03:00N 43°18' W 079°48'0 0.0 230 / 41030.9 4.3-1.0
2018-Apr-21 02:00N 43°18' W 079°48'0 0.0 290 / 61031.3 5.3-1.9
2018-Apr-21 01:00N 43°18' W 079°48'0 0.0 280 / 71031.2 6.2-1.9
2018-Apr-21 00:00N 43°18' W 079°48'0 0.0 290 / 71030.5 7.4-2.4
2018-Apr-20 23:00N 43°18' W 079°48'0 0.0 310 / 81030.1 8.4-3.1
2018-Apr-20 22:00N 43°18' W 079°48'0 0.0 300 / 121030.0 8.1-3.7
2018-Apr-20 21:00N 43°18' W 079°48'0 0.0 280 / 111030.1 7.8-3.0
2018-Apr-20 20:00N 43°18' W 079°48'0 0.0 290 / 91030.1 7.5-3.4
2018-Apr-20 17:00N 43°18' W 079°48'0 0.0 310 / 51030.1 5.6-3.7
2018-Apr-20 16:00N 43°18' W 079°48'0 0.0 310 / 51030.3 4.5-4.4
2018-Apr-20 15:00N 43°18' W 079°48'0 0.0 310 / 81030.2 3.5-4.8
2018-Apr-20 14:00N 43°18' W 079°48'0 0.0 330 / 91029.6 2.7-5.0
2018-Apr-20 13:00N 43°18' W 079°48'0 0.0 330 / 101028.8 1.8-4.9
2018-Apr-20 12:00N 43°18' W 079°48'0 0.0 260 / 81028.1 0.6-3.2
2018-Apr-20 11:00N 43°18' W 079°48'0 0.0 250 / 71027.6 0.2-3.3
2018-Apr-20 10:00N 43°18' W 079°48'0 0.0 270 / 61027.0 0.2-3.0
2018-Apr-20 09:00N 43°18' W 079°48'0 0.0 260 / 61026.4 0.7-3.2
2018-Apr-20 08:00N 43°18' W 079°48'0 0.0 260 / 51025.7 1.2-3.4
2018-Apr-20 07:00N 43°18' W 079°48'0 0.0 260 / 41025.2 1.4-2.3
2018-Apr-20 06:00N 43°18' W 079°48'0 0.0 290 / 41024.8 2.0-2.7
2018-Apr-20 05:00N 43°18' W 079°48'0 0.0 290 / 51024.2 1.9-2.7
2018-Apr-20 04:00N 43°18' W 079°48'0 0.0 270 / 91023.4 2.1-2.4
2018-Apr-20 03:00N 43°18' W 079°48'0 0.0 260 / 101023.3 2.3-2.7
2018-Apr-20 02:00N 43°18' W 079°48'0 0.0 250 / 111023.1 2.8-3.5
2018-Apr-20 01:00N 43°18' W 079°48'0 0.0 260 / 91022.3 3.2-3.6
2018-Apr-20 00:00N 43°18' W 079°48'0 0.0 270 / 131021.2 3.8-3.6
2018-Apr-19 23:00N 43°18' W 079°48'0 0.0 290 / 171020.3 3.7-3.8
2018-Apr-19 22:00N 43°18' W 079°48'0 0.0 290 / 181019.3 3.6-3.4
2018-Apr-19 21:00N 43°18' W 079°48'0 0.0 280 / 181018.4 3.9-3.6
2018-Apr-19 20:00N 43°18' W 079°48'0 0.0 290 / 181018.0 4.0-4.6
2018-Apr-19 19:00N 43°18' W 079°48'0 0.0 290 / 171017.4 3.5-3.9
2018-Apr-19 18:00N 43°18' W 079°48'0 0.0 290 / 171016.6 3.6-3.4
2018-Apr-19 17:00N 43°18' W 079°48'0 0.0 300 / 101016.1 3.4-3.2
2018-Apr-19 16:00N 43°18' W 079°48'0 0.0 300 / 131015.3 2.7-2.9
2018-Apr-19 15:00N 43°18' W 079°48'0 0.0 320 / 141014.6 2.5-3.3
2018-Apr-19 14:00N 43°18' W 079°48'0 0.0 310 / 121013.8 2.1-3.9
2018-Apr-19 13:00N 43°18' W 079°48'0 0.0 330 / 131012.9 1.6-3.6
2018-Apr-19 12:00N 43°18' W 079°48'0 0.0 340 / 71011.8 1.9-3.6
2018-Apr-19 11:00N 43°18' W 079°48'0 0.0 350 / 61010.9 1.9-4.1
2018-Apr-19 10:00N 43°18' W 079°48'0 0.0 330 / 151009.7 2.0-4.1
2018-Apr-19 09:00N 43°18' W 079°48'0 0.0 330 / 121009.4 2.1-2.7
2018-Apr-19 08:00N 43°18' W 079°48'0 0.0 330 / 81009.8 2.5-1.8
2018-Apr-19 07:00N 43°18' W 079°48'0 0.0 290 / 61009.4 2.3-1.1
2018-Apr-19 06:00N 43°18' W 079°48'0 0.0 240 / 81009.5 2.6-0.9
2018-Apr-19 05:00N 43°18' W 079°48'0 0.0 300 / 31008.5 2.6-0.5
2018-Apr-19 04:00N 43°18' W 079°48'0 0.0 330 / 71009.6 2.8-0.7
2018-Apr-19 03:00N 43°18' W 079°48'0 0.0 250 / 91011.1 2.8-0.7
2018-Apr-19 02:00N 43°18' W 079°48'0 0.0 240 / 91012.1 3.0-0.9
2018-Apr-19 01:00N 43°18' W 079°48'0 0.0 240 / 81010.6 3.2-1.1
2018-Apr-19 00:00N 43°18' W 079°48'0 0.0 320 / 61009.4 3.5-1.4
2018-Apr-18 23:00N 43°18' W 079°48'0 0.0 290 / 111010.4 3.7-1.6
2018-Apr-18 22:00N 43°18' W 079°48'0 0.0 280 / 101010.3 4.0-0.7
2018-Apr-18 21:00N 43°18' W 079°48'0 0.0 240 / 111010.7 3.9 0.1
2018-Apr-18 20:00N 43°18' W 079°48'0 0.0 250 / 91010.6 4.1-0.5
2018-Apr-18 19:00N 43°18' W 079°48'0 0.0 250 / 91010.5 3.9-0.0
2018-Apr-18 18:00N 43°18' W 079°48'0 0.0 250 / 131010.7 3.6-0.5
2018-Apr-18 17:00N 43°18' W 079°48'0 0.0 230 / 151010.9 3.1-0.0
2018-Apr-18 16:00N 43°18' W 079°48'0 0.0 230 / 151010.8 3.1-0.3
2018-Apr-18 14:00N 43°18' W 079°48'0 0.0 220 / 121010.4 2.5 0.3
2018-Apr-18 13:00N 43°18' W 079°48'0 0.0 220 / 111010.3 2.1 0.4
2018-Apr-18 12:00N 43°18' W 079°48'0 0.0 240 / 111010.9 1.9 0.4
2018-Apr-18 11:00N 43°18' W 079°48'0 0.0 230 / 131010.4 1.8 0.1
2018-Apr-18 10:00N 43°18' W 079°48'0 0.0 240 / 111009.9 1.9 0.1
2018-Apr-18 09:00N 43°18' W 079°48'0 0.0 250 / 151009.5 1.9-0.2
2018-Apr-18 08:00N 43°18' W 079°48'0 0.0 240 / 131009.5 1.9-0.2
2018-Apr-18 07:00N 43°18' W 079°48'0 0.0 240 / 131008.9 2.0-0.2
2018-Apr-18 06:00N 43°18' W 079°48'0 0.0 250 / 151008.8 2.2-0.4
2018-Apr-18 05:00N 43°18' W 079°48'0 0.0 260 / 131008.9 2.4-0.1
2018-Apr-18 04:00N 43°18' W 079°48'0 0.0 240 / 91008.5 2.0 1.3
2018-Apr-18 03:00N 43°18' W 079°48'0 0.0 230 / 101008.3 2.3 1.3
2018-Apr-18 02:00N 43°18' W 079°48'0 0.0 230 / 141007.8 1.7 1.0
2018-Apr-18 01:00N 43°18' W 079°48'0 0.0 240 / 161007.3 1.7 0.1
2018-Apr-18 00:00N 43°18' W 079°48'0 0.0 240 / 171006.7 2.1-1.5
2018-Apr-17 23:00N 43°18' W 079°48'0 0.0 240 / 161006.1 2.0-2.0
2018-Apr-17 22:00N 43°18' W 079°48'0 0.0 240 / 161005.8 1.8-2.8
2018-Apr-17 21:00N 43°18' W 079°48'0 0.0 240 / 161005.3 1.6-2.7
2018-Apr-17 20:00N 43°18' W 079°48'0 0.0 240 / 171005.1 0.9-2.7
2018-Apr-17 19:00N 43°18' W 079°48'0 0.0 220 / 151004.8 0.5-2.7
2018-Apr-17 18:00N 43°18' W 079°48'0 0.0 240 / 141004.5 -0.0-3.2
2018-Apr-17 17:00N 43°18' W 079°48'0 0.0 240 / 171004.2 -0.4-2.3
2018-Apr-17 16:00N 43°18' W 079°48'0 0.0 250 / 161004.3 0.2-3.3
2018-Apr-17 15:00N 43°18' W 079°48'0 0.0 260 / 161004.1 0.4-1.4
2018-Apr-17 14:00N 43°18' W 079°48'0 0.0 230 / 121004.3 0.4-1.8
2018-Apr-17 13:00N 43°18' W 079°48'0 0.0 240 / 121004.8 0.1-2.8
2018-Apr-17 12:00N 43°18' W 079°48'0 0.0 240 / 161004.9 0.3-3.6
2018-Apr-17 11:00N 43°18' W 079°48'0 0.0 240 / 141004.8 0.4-3.8
2018-Apr-17 10:00N 43°18' W 079°48'0 0.0 240 / 161004.5 0.5-3.5
2018-Apr-17 09:00N 43°18' W 079°48'0 0.0 240 / 181004.2 0.6-3.5
2018-Apr-17 08:00N 43°18' W 079°48'0 0.0 240 / 211003.9 1.1-2.8
2018-Apr-17 07:00N 43°18' W 079°48'0 0.0 250 / 181003.5 1.8-1.2
2018-Apr-17 06:00N 43°18' W 079°48'0 0.0 250 / 151003.5 2.2 0.9
2018-Apr-17 05:00N 43°18' W 079°48'0 0.0 250 / 131003.1 2.7 1.7
2018-Apr-17 04:00N 43°18' W 079°48'0 0.0 250 / 141002.8 3.0 2.8
2018-Apr-17 03:00N 43°18' W 079°48'0 0.0 230 / 121002.5 2.9 2.7
2018-Apr-17 02:00N 43°18' W 079°48'0 0.0 220 / 131002.5 3.0 2.8
2018-Apr-17 01:00N 43°18' W 079°48'0 0.0 230 / 141002.1 3.1 3.0
2018-Apr-17 00:00N 43°18' W 079°48'0 0.0 230 / 151001.9 3.4 3.2
2018-Apr-16 23:00N 43°18' W 079°48'0 0.0 240 / 171001.7 4.0 3.7
2018-Apr-16 22:00N 43°18' W 079°48'   230 / 121001.5 3.9 3.7

Dump ship's entire track history